Fire Weather Observation
Issued by NWS Grand Junction, CO

Home | Current Version | Previous Version | Graphics & Text | Print | Product List | Glossary On
Versions: 1 2 3 4 5 6 7 8 9 10 11 12 13 14 15 16 17 18 19 20 21 22 23 24 25 26 27 28 29 30 31 32 33 34 35 36 37 38
000
SHUS65 KGJT 142021
FWOGJT

DAILY FIRE WEATHER OBSERVATION
NATIONAL WEATHER SERVICE GRAND JUNCTION CO
212 PM MDT THU SEP 14 2017

STATE OF THE WEATHER (W)               3
DRY BULB TEMPERATURE                   77   DEGREES FAHRENHEIT
RELATIVE HUMIDITY (RH)                 32   PERCENT
LIGHTNING ACTIVITY LEVEL
  (LAL - MIDNIGHT TO 2 PM)             1
WIND DIRECTION                         090  DEGREES (C IF CALM)
WIND SPEED                             9    MPH
MAX TEMP (2 PM - 2 PM)                 91   DEGREES FAHRENHEIT
MIN TEMP (2 PM - 2 PM)                 57   DEGREES FAHRENHEIT
MAX RH (2 PM - 2 PM)                   62   PERCENT
MIN RH (2 PM - 2 PM)                   14   PERCENT
PCPN DURATION                          0.0  HOURS
PCPN AMT (2 PM - 2 PM)                 T    INCHES
LAL (2 PM - 2 PM)                      4

$$

METAR KGJT 141953Z 10008KT 10SM CLR 25/07 A2988 RMK AO2 RAE19
      SLP051 P0000 T02500072



USA.gov is the U.S. government's official web portal to all federal, state and local government web resources and services.